createdAt,value
2022-08-30T00:01:05.898Z,18.10
2022-08-30T00:03:45.725Z,18.00
2022-08-30T00:06:13.500Z,18.00
2022-08-30T00:08:40.926Z,17.90
2022-08-30T00:11:09.812Z,17.90
2022-08-30T00:13:38.485Z,17.90
2022-08-30T00:16:09.088Z,17.90
2022-08-30T00:18:36.303Z,18.00
2022-08-30T00:21:03.047Z,17.90
2022-08-30T00:23:29.604Z,17.80
2022-08-30T00:25:56.123Z,17.80
2022-08-30T00:28:22.644Z,17.90
2022-08-30T00:30:49.386Z,17.80
2022-08-30T00:33:16.414Z,17.80
2022-08-30T00:35:43.224Z,17.70
2022-08-30T00:38:11.203Z,17.80
2022-08-30T00:40:37.928Z,17.70
2022-08-30T00:43:06.292Z,17.70
2022-08-30T00:45:34.721Z,17.60
2022-08-30T00:48:01.687Z,17.70
2022-08-30T00:50:30.802Z,17.70
2022-08-30T00:52:59.874Z,17.60
2022-08-30T00:55:27.794Z,17.60
2022-08-30T00:57:56.887Z,17.50
2022-08-30T01:00:23.435Z,17.50
2022-08-30T01:02:50.027Z,17.50
2022-08-30T01:05:19.255Z,17.50
2022-08-30T01:07:45.794Z,17.50
2022-08-30T01:10:13.477Z,17.40
2022-08-30T01:12:41.195Z,17.40
2022-08-30T01:15:08.239Z,17.40
2022-08-30T01:17:35.415Z,17.40
2022-08-30T01:20:07.034Z,17.40
2022-08-30T01:22:33.535Z,17.40
2022-08-30T01:25:00.799Z,17.30
2022-08-30T01:27:28.438Z,17.30
2022-08-30T01:29:55.430Z,17.30
2022-08-30T01:32:27.345Z,17.20
2022-08-30T01:34:56.579Z,17.30
2022-08-30T01:37:31.236Z,17.30
2022-08-30T01:39:57.902Z,17.30
2022-08-30T01:42:24.722Z,17.30
2022-08-30T01:44:54.544Z,17.30
2022-08-30T01:47:21.284Z,17.30
2022-08-30T01:49:49.325Z,17.30
2022-08-30T01:52:16.602Z,17.30
2022-08-30T01:54:43.950Z,17.30
2022-08-30T01:57:14.163Z,17.20
2022-08-30T01:59:42.450Z,17.20
2022-08-30T02:02:09.798Z,17.10
2022-08-30T02:04:36.682Z,17.10
2022-08-30T02:07:04.421Z,17.10
2022-08-30T02:09:31.117Z,17.10
2022-08-30T02:11:57.917Z,17.10
2022-08-30T02:14:24.746Z,17.00
2022-08-30T02:16:51.416Z,17.00
2022-08-30T02:19:17.996Z,16.90
2022-08-30T02:21:44.671Z,16.90
2022-08-30T02:24:11.239Z,16.90
2022-08-30T02:26:38.798Z,16.90
2022-08-30T02:29:05.836Z,16.90
2022-08-30T02:31:33.455Z,16.90
2022-08-30T02:34:00.029Z,16.90
2022-08-30T02:36:26.738Z,16.90
2022-08-30T02:38:53.828Z,16.80
2022-08-30T02:41:20.452Z,16.80
2022-08-30T02:43:47.080Z,16.90
2022-08-30T02:46:13.719Z,16.80
2022-08-30T02:48:40.326Z,16.80
2022-08-30T02:51:11.414Z,16.70
2022-08-30T02:53:39.335Z,16.70
2022-08-30T02:56:05.963Z,16.70
2022-08-30T02:58:34.885Z,16.70
2022-08-30T03:01:01.807Z,16.70
2022-08-30T03:03:28.554Z,16.60
2022-08-30T03:05:55.100Z,16.60
2022-08-30T03:08:22.784Z,16.70
2022-08-30T03:10:52.042Z,16.70
2022-08-30T03:13:21.300Z,16.60
2022-08-30T03:15:50.305Z,16.60
2022-08-30T03:18:17.591Z,16.60
2022-08-30T03:20:44.183Z,16.50
2022-08-30T03:23:21.867Z,16.50
2022-08-30T03:25:48.904Z,16.50
2022-08-30T03:28:15.875Z,16.50
2022-08-30T03:30:42.385Z,16.50
2022-08-30T03:33:08.972Z,16.50
2022-08-30T03:35:38.139Z,16.50
2022-08-30T03:38:05.731Z,16.50
2022-08-30T03:40:32.335Z,16.50
2022-08-30T03:42:59.135Z,16.50
2022-08-30T03:45:26.250Z,16.40
2022-08-30T03:47:52.820Z,16.40
2022-08-30T03:50:21.641Z,16.40
2022-08-30T03:52:50.038Z,16.30
2022-08-30T03:55:19.203Z,16.40
2022-08-30T03:57:45.723Z,16.30
2022-08-30T04:00:14.394Z,16.30
2022-08-30T04:02:41.894Z,16.30
2022-08-30T04:05:09.715Z,16.30
2022-08-30T04:07:36.588Z,16.30
2022-08-30T04:10:03.918Z,16.30
2022-08-30T04:12:30.475Z,16.30
2022-08-30T04:14:57.061Z,16.30
2022-08-30T04:17:23.625Z,16.20
2022-08-30T04:19:51.250Z,16.30
2022-08-30T04:22:17.878Z,16.20
2022-08-30T04:24:44.411Z,16.30
2022-08-30T04:27:11.862Z,16.20
2022-08-30T04:29:39.478Z,16.20
2022-08-30T04:32:06.085Z,16.20
2022-08-30T04:34:32.731Z,16.20
2022-08-30T04:36:59.324Z,16.20
2022-08-30T04:39:26.386Z,16.20
2022-08-30T04:41:52.980Z,16.20
2022-08-30T04:44:19.810Z,16.10
2022-08-30T04:46:46.595Z,16.10
2022-08-30T04:49:13.471Z,16.10
2022-08-30T04:51:40.659Z,16.10
2022-08-30T04:54:07.194Z,16.10
2022-08-30T04:56:33.827Z,16.20
2022-08-30T04:59:00.443Z,16.10
2022-08-30T05:01:28.588Z,16.10
2022-08-30T05:03:55.977Z,16.10
2022-08-30T05:06:23.510Z,16.10
2022-08-30T05:08:50.686Z,16.00
2022-08-30T05:11:17.205Z,16.10
2022-08-30T05:13:55.275Z,16.00
2022-08-30T05:16:21.908Z,16.00
2022-08-30T05:18:49.893Z,16.00
2022-08-30T05:21:18.138Z,16.00
2022-08-30T05:23:45.551Z,16.00
2022-08-30T05:26:13.864Z,16.00
2022-08-30T05:28:40.435Z,16.00
2022-08-30T05:31:14.461Z,16.00
2022-08-30T05:33:41.467Z,16.00
2022-08-30T05:36:10.884Z,16.00
2022-08-30T05:38:37.503Z,15.90
2022-08-30T05:41:10.596Z,15.90
2022-08-30T05:43:37.731Z,15.90
2022-08-30T05:46:08.447Z,15.90
2022-08-30T05:48:35.362Z,16.00
2022-08-30T05:51:02.993Z,16.00
2022-08-30T05:53:29.528Z,16.10
2022-08-30T05:55:56.066Z,16.10
2022-08-30T05:58:22.833Z,16.00
2022-08-30T06:00:49.492Z,16.10
2022-08-30T06:03:16.058Z,16.10
2022-08-30T06:05:42.635Z,16.20
2022-08-30T06:08:09.406Z,16.10
2022-08-30T06:10:36.161Z,16.20
2022-08-30T06:13:02.687Z,16.20
2022-08-30T06:15:29.243Z,16.20
2022-08-30T06:17:56.217Z,16.30
2022-08-30T06:20:23.019Z,16.30
2022-08-30T06:22:49.523Z,16.30
2022-08-30T06:25:16.334Z,16.40
2022-08-30T06:27:43.056Z,16.40
2022-08-30T06:30:10.919Z,16.50
2022-08-30T06:32:39.832Z,16.50
2022-08-30T06:35:07.178Z,16.60
2022-08-30T06:37:34.267Z,16.70
2022-08-30T06:40:02.188Z,16.70
2022-08-30T06:42:32.083Z,16.70
2022-08-30T06:44:59.759Z,16.80
2022-08-30T06:47:27.289Z,16.90
2022-08-30T06:49:53.842Z,16.90
2022-08-30T06:52:20.624Z,17.00
2022-08-30T06:54:47.378Z,17.10
2022-08-30T06:57:13.951Z,17.10
2022-08-30T06:59:40.592Z,17.20
2022-08-30T07:02:07.558Z,17.30
2022-08-30T07:04:34.176Z,17.30
2022-08-30T07:07:00.976Z,17.30
2022-08-30T07:09:27.857Z,17.40
2022-08-30T07:11:54.468Z,17.50
2022-08-30T07:14:21.570Z,17.50
2022-08-30T07:16:51.181Z,17.60
2022-08-30T07:19:20.942Z,17.60
2022-08-30T07:21:48.837Z,17.70
2022-08-30T07:24:16.389Z,17.70
2022-08-30T07:26:46.633Z,17.80
2022-08-30T07:29:13.142Z,17.80
2022-08-30T07:31:40.091Z,17.90
2022-08-30T07:34:07.327Z,18.00
2022-08-30T07:36:34.765Z,18.10
2022-08-30T07:39:01.525Z,18.20
2022-08-30T07:41:29.900Z,18.20
2022-08-30T07:43:56.770Z,18.30
2022-08-30T07:46:24.136Z,18.30
2022-08-30T07:48:50.935Z,18.40
2022-08-30T07:51:18.918Z,18.50
2022-08-30T07:53:45.804Z,18.60
2022-08-30T07:56:14.194Z,18.70
2022-08-30T07:58:40.866Z,18.70
2022-08-30T08:01:09.161Z,18.80
2022-08-30T08:03:36.323Z,18.80
2022-08-30T08:06:03.993Z,18.90
2022-08-30T08:08:30.907Z,18.90
2022-08-30T08:10:57.466Z,18.90
2022-08-30T08:13:24.142Z,19.00
2022-08-30T08:15:55.295Z,19.10
2022-08-30T08:18:21.926Z,19.20
2022-08-30T08:20:50.800Z,19.30
2022-08-30T08:23:21.644Z,19.40
2022-08-30T08:25:48.166Z,19.40
2022-08-30T08:28:14.704Z,19.40
2022-08-30T08:30:44.068Z,19.50
2022-08-30T08:33:14.198Z,19.60
2022-08-30T08:35:40.726Z,19.70
2022-08-30T08:38:07.268Z,19.80
2022-08-30T08:40:48.088Z,19.90
2022-08-30T08:43:17.009Z,20.00
2022-08-30T08:45:51.956Z,20.10
2022-08-30T08:48:51.896Z,20.10
2022-08-30T08:51:40.667Z,20.20
2022-08-30T08:54:16.162Z,20.30
2022-08-30T08:56:43.112Z,20.40
2022-08-30T08:59:10.810Z,20.40
2022-08-30T09:01:38.962Z,20.50
2022-08-30T09:04:08.956Z,20.60
2022-08-30T09:06:45.420Z,20.70
2022-08-30T09:09:12.579Z,20.70
2022-08-30T09:11:41.670Z,20.80
2022-08-30T09:14:16.795Z,20.90
2022-08-30T09:16:58.606Z,21.00
2022-08-30T09:19:34.373Z,21.10
2022-08-30T09:22:11.465Z,21.20
2022-08-30T09:24:48.028Z,21.20
2022-08-30T09:27:22.122Z,21.40
2022-08-30T09:29:52.179Z,21.50
2022-08-30T09:32:27.020Z,21.50
2022-08-30T09:34:53.837Z,21.60
2022-08-30T09:37:26.750Z,21.60
2022-08-30T09:39:53.410Z,21.70
2022-08-30T09:42:29.370Z,21.70
2022-08-30T09:45:12.200Z,21.80
2022-08-30T09:47:41.192Z,21.80
2022-08-30T09:50:07.817Z,21.90
2022-08-30T09:52:55.310Z,22.00
2022-08-30T09:55:38.434Z,22.10
2022-08-30T09:58:10.129Z,22.10
2022-08-30T10:00:46.291Z,22.20
2022-08-30T10:03:13.218Z,22.20
2022-08-30T10:05:58.411Z,22.30
2022-08-30T10:08:31.512Z,22.30
2022-08-30T10:11:03.550Z,22.30
2022-08-30T10:13:30.078Z,22.30
2022-08-30T10:16:16.024Z,22.40
2022-08-30T10:19:10.571Z,22.40
2022-08-30T10:21:40.596Z,22.40
2022-08-30T10:24:11.306Z,22.40
2022-08-30T10:26:59.651Z,22.50
2022-08-30T10:29:31.190Z,22.50
2022-08-30T10:32:02.901Z,22.50
2022-08-30T10:34:32.778Z,22.60
2022-08-30T10:37:10.027Z,22.70
2022-08-30T10:39:59.138Z,22.70
2022-08-30T10:42:28.301Z,22.70
2022-08-30T10:44:57.148Z,22.80
2022-08-30T10:47:29.955Z,22.70
2022-08-30T10:50:06.446Z,22.80
2022-08-30T10:52:35.495Z,22.90
2022-08-30T10:55:22.291Z,22.90
2022-08-30T10:57:49.384Z,23.00
2022-08-30T11:00:22.254Z,23.00
2022-08-30T11:02:48.822Z,22.90
2022-08-30T11:05:24.662Z,22.90
2022-08-30T11:08:08.220Z,22.90
2022-08-30T11:11:05.710Z,23.00
2022-08-30T11:13:39.999Z,23.00
2022-08-30T11:16:15.164Z,23.00
2022-08-30T11:18:51.202Z,23.00
2022-08-30T11:21:18.722Z,23.00
2022-08-30T11:23:57.543Z,23.10
2022-08-30T11:26:42.912Z,23.10
2022-08-30T11:29:31.706Z,23.10
2022-08-30T11:32:14.000Z,23.20
2022-08-30T11:34:46.828Z,23.20
2022-08-30T11:37:13.327Z,23.30
2022-08-30T11:39:50.927Z,23.30
2022-08-30T11:42:35.938Z,23.30
2022-08-30T11:45:21.406Z,23.30
2022-08-30T11:47:59.611Z,23.30
2022-08-30T11:50:28.975Z,23.40
2022-08-30T11:52:59.738Z,23.40
2022-08-30T11:55:37.999Z,23.40
2022-08-30T11:58:11.888Z,23.50
2022-08-30T12:00:40.851Z,23.50
2022-08-30T12:03:27.180Z,23.40
2022-08-30T12:06:18.976Z,23.50
2022-08-30T12:08:47.497Z,23.50
2022-08-30T12:11:17.263Z,23.60
2022-08-30T12:13:44.223Z,23.60
2022-08-30T12:16:12.390Z,23.70
2022-08-30T12:18:39.075Z,23.70
2022-08-30T12:21:14.086Z,23.70
2022-08-30T12:23:59.146Z,23.70
2022-08-30T12:26:32.230Z,23.80
2022-08-30T12:29:17.633Z,23.90
2022-08-30T12:31:44.263Z,23.90
2022-08-30T12:34:17.839Z,23.90
2022-08-30T12:36:52.630Z,23.80
2022-08-30T12:39:21.395Z,23.90
2022-08-30T12:41:48.031Z,24.00
2022-08-30T12:44:26.282Z,24.10
2022-08-30T12:47:01.245Z,24.10
2022-08-30T12:49:31.597Z,24.20
2022-08-30T12:52:25.062Z,24.30
2022-08-30T12:54:53.333Z,24.40
2022-08-30T12:57:36.663Z,24.50
2022-08-30T13:00:04.368Z,24.70
2022-08-30T13:02:45.272Z,24.70
2022-08-30T13:05:32.067Z,24.80
2022-08-30T13:08:08.739Z,24.90
2022-08-30T13:10:48.072Z,24.90
2022-08-30T13:13:25.756Z,24.90
2022-08-30T13:15:54.369Z,25.00
2022-08-30T13:18:26.633Z,25.10
2022-08-30T13:21:31.297Z,25.20
2022-08-30T13:23:57.817Z,25.30
2022-08-30T13:26:24.416Z,25.40
2022-08-30T13:28:58.171Z,25.50
2022-08-30T13:31:27.117Z,25.60
2022-08-30T13:33:54.348Z,25.80
2022-08-30T13:36:23.033Z,26.20
2022-08-30T13:38:51.381Z,26.50
2022-08-30T13:41:20.249Z,26.90
2022-08-30T13:46:34.302Z,27.30
2022-08-30T13:49:04.745Z,28.00
2022-08-30T13:51:31.451Z,28.70
2022-08-30T13:53:59.071Z,28.70
2022-08-30T13:56:25.655Z,28.70
2022-08-30T13:58:52.222Z,29.10
2022-08-30T14:01:19.517Z,29.30
2022-08-30T14:06:34.371Z,29.80
2022-08-30T14:09:04.553Z,29.90
2022-08-30T14:11:31.403Z,30.40
2022-08-30T14:16:46.254Z,30.70
2022-08-30T14:19:14.443Z,30.40
2022-08-30T14:21:41.297Z,30.30
2022-08-30T14:24:07.996Z,30.30
2022-08-30T14:26:45.162Z,30.40
2022-08-30T14:29:13.651Z,30.50
2022-08-30T14:31:41.563Z,30.30
2022-08-30T14:34:10.942Z,29.80
2022-08-30T14:36:39.739Z,29.90
2022-08-30T14:39:08.375Z,30.00
2022-08-30T14:41:39.029Z,29.60
2022-08-30T14:44:10.361Z,29.40
2022-08-30T14:46:37.379Z,29.50
2022-08-30T14:49:06.242Z,29.60
2022-08-30T14:51:32.831Z,29.20
2022-08-30T14:54:00.994Z,29.20
2022-08-30T14:56:27.627Z,29.20
2022-08-30T14:58:54.485Z,29.10
2022-08-30T15:01:22.519Z,29.20
2022-08-30T15:03:49.070Z,29.10
2022-08-30T15:06:17.900Z,29.00
2022-08-30T15:08:47.680Z,29.10
2022-08-30T15:11:16.682Z,28.90
2022-08-30T15:13:46.226Z,29.00
2022-08-30T15:16:12.935Z,29.00
2022-08-30T15:18:39.782Z,28.70
2022-08-30T15:21:08.558Z,28.50
2022-08-30T15:23:35.176Z,28.70
2022-08-30T15:26:02.225Z,28.60
2022-08-30T15:28:28.885Z,28.60
2022-08-30T15:30:55.705Z,28.50
2022-08-30T15:33:22.857Z,28.30
2022-08-30T15:35:52.028Z,28.50
2022-08-30T15:38:19.213Z,28.50
2022-08-30T15:40:49.293Z,28.50
2022-08-30T15:43:16.049Z,28.40
2022-08-30T15:45:42.826Z,28.40
2022-08-30T15:48:09.858Z,28.20
2022-08-30T15:50:36.380Z,28.20
2022-08-30T15:53:03.652Z,28.00
2022-08-30T15:55:30.209Z,28.00
2022-08-30T15:57:57.864Z,27.70
2022-08-30T16:00:33.698Z,27.70
2022-08-30T16:03:01.316Z,27.70
2022-08-30T16:05:29.468Z,27.70
2022-08-30T16:07:56.203Z,27.50
2022-08-30T16:10:22.752Z,27.40
2022-08-30T16:12:49.320Z,27.30
2022-08-30T16:15:15.948Z,27.50
2022-08-30T16:17:42.616Z,27.50
2022-08-30T16:20:09.480Z,27.40
2022-08-30T16:22:38.429Z,27.30
2022-08-30T16:25:05.168Z,27.20
2022-08-30T16:27:33.599Z,27.10
2022-08-30T16:30:00.144Z,27.20
2022-08-30T16:32:26.705Z,27.20
2022-08-30T16:34:53.394Z,26.90
2022-08-30T16:37:20.259Z,26.80
2022-08-30T16:39:47.098Z,27.10
2022-08-30T16:42:14.883Z,27.40
2022-08-30T16:44:48.310Z,27.30
2022-08-30T16:47:16.546Z,27.60
2022-08-30T16:49:44.019Z,27.70
2022-08-30T16:52:11.553Z,27.80
2022-08-30T16:54:39.030Z,27.70
2022-08-30T16:57:06.493Z,27.80
2022-08-30T16:59:33.241Z,27.70
2022-08-30T17:02:00.788Z,27.60
2022-08-30T17:04:27.583Z,27.20
2022-08-30T17:06:54.167Z,26.80
2022-08-30T17:09:20.782Z,26.50
2022-08-30T17:11:49.117Z,26.20
2022-08-30T17:14:20.115Z,25.80
2022-08-30T17:16:50.362Z,25.60
2022-08-30T17:19:16.997Z,25.50
2022-08-30T17:21:53.889Z,25.30
2022-08-30T17:24:20.514Z,25.20
2022-08-30T17:26:47.489Z,25.10
2022-08-30T17:29:14.234Z,24.90
2022-08-30T17:31:43.047Z,24.70
2022-08-30T17:34:11.591Z,24.60
2022-08-30T17:36:38.490Z,24.50
2022-08-30T17:39:11.439Z,24.40
2022-08-30T17:41:48.235Z,24.20
2022-08-30T17:44:17.274Z,24.20
2022-08-30T17:46:44.945Z,24.10
2022-08-30T17:49:11.869Z,24.00
2022-08-30T17:51:42.546Z,23.90
2022-08-30T17:54:10.241Z,23.80
2022-08-30T17:56:36.814Z,23.70
2022-08-30T17:59:05.424Z,23.60
2022-08-30T18:01:32.132Z,23.50
2022-08-30T18:04:01.971Z,23.50
2022-08-30T18:06:33.195Z,23.40
2022-08-30T18:08:59.737Z,23.30
2022-08-30T18:11:26.271Z,23.20
2022-08-30T18:13:52.871Z,23.10
2022-08-30T18:16:21.545Z,23.10
2022-08-30T18:18:57.338Z,23.00
2022-08-30T18:21:25.215Z,22.90
2022-08-30T18:23:52.171Z,22.80
2022-08-30T18:26:18.716Z,22.70
2022-08-30T18:28:51.174Z,22.70
2022-08-30T18:31:17.737Z,22.50
2022-08-30T18:33:44.545Z,22.50
2022-08-30T18:36:11.287Z,22.40
2022-08-30T18:38:38.950Z,22.40
2022-08-30T18:41:07.296Z,22.30
2022-08-30T18:43:35.111Z,22.20
2022-08-30T18:46:02.647Z,22.10
2022-08-30T18:48:29.859Z,22.00
2022-08-30T18:50:56.567Z,22.00
2022-08-30T18:53:29.200Z,21.90
2022-08-30T18:55:56.405Z,21.80
2022-08-30T18:58:23.004Z,21.70
2022-08-30T19:00:49.600Z,21.60
2022-08-30T19:03:18.311Z,21.60
2022-08-30T19:05:45.788Z,21.50
2022-08-30T19:08:13.293Z,21.40
2022-08-30T19:10:39.981Z,21.30
2022-08-30T19:13:06.587Z,21.30
2022-08-30T19:15:37.480Z,21.30
2022-08-30T19:18:16.833Z,21.30
2022-08-30T19:20:44.895Z,21.20
2022-08-30T19:23:11.792Z,21.20
2022-08-30T19:25:39.596Z,21.10
2022-08-30T19:28:06.438Z,21.00
2022-08-30T19:30:33.052Z,21.00
2022-08-30T19:32:59.620Z,20.90
2022-08-30T19:35:26.568Z,20.90
2022-08-30T19:37:56.527Z,20.80
2022-08-30T19:40:23.224Z,20.70
2022-08-30T19:42:50.384Z,20.70
2022-08-30T19:45:21.490Z,20.70
2022-08-30T19:47:48.949Z,20.60
2022-08-30T19:50:15.886Z,20.60
2022-08-30T19:52:42.474Z,20.60
2022-08-30T19:55:10.562Z,20.50
2022-08-30T19:57:37.550Z,20.50
2022-08-30T20:00:07.807Z,20.50
2022-08-30T20:02:34.395Z,20.40
2022-08-30T20:05:01.111Z,20.40
2022-08-30T20:07:30.991Z,20.30
2022-08-30T20:10:00.248Z,20.30
2022-08-30T20:12:26.806Z,20.30
2022-08-30T20:14:53.341Z,20.20
2022-08-30T20:17:23.392Z,20.20
2022-08-30T20:19:49.912Z,20.20
2022-08-30T20:22:16.440Z,20.20
2022-08-30T20:24:43.810Z,20.20
2022-08-30T20:27:10.841Z,20.20
2022-08-30T20:29:37.975Z,20.20
2022-08-30T20:32:04.588Z,20.20
2022-08-30T20:34:31.181Z,20.20
2022-08-30T20:36:58.423Z,20.10
2022-08-30T20:39:24.963Z,20.10
2022-08-30T20:41:51.552Z,20.00
2022-08-30T20:44:18.305Z,20.00
2022-08-30T20:46:45.609Z,20.00
2022-08-30T20:49:12.327Z,20.00
2022-08-30T20:51:39.428Z,19.90
2022-08-30T20:54:06.346Z,19.90
2022-08-30T20:56:34.286Z,19.90
2022-08-30T20:59:02.557Z,19.80
2022-08-30T21:01:30.955Z,19.90
2022-08-30T21:03:57.559Z,19.90
2022-08-30T21:06:25.204Z,19.70
2022-08-30T21:08:52.254Z,19.80
2022-08-30T21:11:19.543Z,19.70
2022-08-30T21:13:48.244Z,19.70
2022-08-30T21:16:16.385Z,19.70
2022-08-30T21:18:48.506Z,19.70
2022-08-30T21:21:16.462Z,19.50
2022-08-30T21:23:43.001Z,19.60
2022-08-30T21:26:10.102Z,19.60
2022-08-30T21:28:36.868Z,19.50
2022-08-30T21:31:04.738Z,19.40
2022-08-30T21:33:31.356Z,19.40
2022-08-30T21:36:17.011Z,19.40
2022-08-30T21:38:44.321Z,19.40
2022-08-30T21:41:12.641Z,19.40
2022-08-30T21:43:39.175Z,19.30
2022-08-30T21:46:06.834Z,19.30
2022-08-30T21:48:34.368Z,19.30
2022-08-30T21:51:08.058Z,19.30
2022-08-30T21:53:34.710Z,19.20
2022-08-30T21:56:13.250Z,19.20
2022-08-30T21:58:44.424Z,19.20
2022-08-30T22:01:15.566Z,19.10
2022-08-30T22:03:42.611Z,19.10
2022-08-30T22:06:10.907Z,19.10
2022-08-30T22:08:38.587Z,19.00
2022-08-30T22:11:06.234Z,19.00
2022-08-30T22:13:32.750Z,19.00
2022-08-30T22:15:59.265Z,19.00
2022-08-30T22:18:25.792Z,18.90
2022-08-30T22:20:52.311Z,18.90
2022-08-30T22:23:19.379Z,18.90
2022-08-30T22:25:46.211Z,18.80
2022-08-30T22:28:15.033Z,18.80
2022-08-30T22:30:41.628Z,18.80
2022-08-30T22:33:08.361Z,18.70
2022-08-30T22:35:37.972Z,18.70
2022-08-30T22:38:04.845Z,18.70
2022-08-30T22:40:32.004Z,18.60
2022-08-30T22:42:59.796Z,18.70
2022-08-30T22:45:27.170Z,18.60
2022-08-30T22:47:54.570Z,18.60
2022-08-30T22:50:21.794Z,18.50
2022-08-30T22:52:49.118Z,18.60
2022-08-30T22:55:15.907Z,18.50
2022-08-30T22:57:42.458Z,18.50
2022-08-30T23:00:15.145Z,18.40
2022-08-30T23:02:42.498Z,18.40
2022-08-30T23:05:09.402Z,18.40
2022-08-30T23:07:35.946Z,18.40
2022-08-30T23:10:02.635Z,18.40
2022-08-30T23:12:29.226Z,18.30
2022-08-30T23:14:55.831Z,18.30
2022-08-30T23:17:22.397Z,18.30
2022-08-30T23:19:49.108Z,18.30
2022-08-30T23:22:15.947Z,18.10
2022-08-30T23:25:01.219Z,18.20
2022-08-30T23:27:46.458Z,18.00
2022-08-30T23:30:32.150Z,18.00
2022-08-30T23:33:17.358Z,18.10
2022-08-30T23:36:02.656Z,18.10
2022-08-30T23:38:47.783Z,18.00
2022-08-30T23:41:34.235Z,18.00
2022-08-30T23:44:19.412Z,17.90
2022-08-30T23:47:04.532Z,17.90
2022-08-30T23:49:49.841Z,17.90
2022-08-30T23:52:34.891Z,17.80
2022-08-30T23:55:20.159Z,17.90
2022-08-30T23:58:05.282Z,17.90
